ARP340 VOMM-VCBI
Flight info
| Callsign | ARP340 |
|---|---|
| Flight time | 1h 0m |
| Altitude | 360 |
| Route | TEGUT V7 SAGOR |
| Aircraft | B738/M-SDE2E3FGHIRWXY/S |
Departure
| Time | 2026-05-04 19:08 |
|---|---|
| Airport | Chennai International Airport (VOMM) |
Arrival
| Time | 2026-05-04 20:08 |
|---|---|
| Airport | Bandaranaike International Colombo Airport (VCBI) |
| Time | Latitude | Longitude | Altitude | Speed | Heading |
|---|---|---|---|---|---|
| 2026-05-04 18:52 | 12.98452 | 80.16564 | 54 ft | 0 kts | 159° |
| 2026-05-04 18:58 | 12.98463 | 80.16561 | 48 ft | 3 kts | 159° |
| 2026-05-04 18:58 | 12.98480 | 80.16554 | 47 ft | 3 kts | 154° |
| 2026-05-04 18:59 | 12.98495 | 80.16542 | 52 ft | 3 kts | 122° |
| 2026-05-04 18:59 | 12.98502 | 80.16523 | 49 ft | 3 kts | 90° |
| 2026-05-04 18:59 | 12.98499 | 80.16505 | 54 ft | 4 kts | 75° |
| 2026-05-04 18:59 | 12.98498 | 80.16500 | 54 ft | 0 kts | 75° |
| 2026-05-04 19:01 | 12.98498 | 80.16501 | 54 ft | 1 kts | 75° |
| 2026-05-04 19:01 | 12.98504 | 80.16524 | 49 ft | 7 kts | 75° |
| 2026-05-04 19:01 | 12.98524 | 80.16586 | 52 ft | 10 kts | 69° |
| 2026-05-04 19:02 | 12.98549 | 80.16654 | 52 ft | 10 kts | 69° |
| 2026-05-04 19:02 | 12.98574 | 80.16721 | 49 ft | 10 kts | 69° |
| 2026-05-04 19:02 | 12.98619 | 80.16765 | 52 ft | 10 kts | 4° |
| 2026-05-04 19:02 | 12.98682 | 80.16746 | 51 ft | 9 kts | 339° |
| 2026-05-04 19:03 | 12.98744 | 80.16739 | 54 ft | 9 kts | 24° |
| 2026-05-04 19:03 | 12.98777 | 80.16791 | 54 ft | 9 kts | 68° |
| 2026-05-04 19:03 | 12.98799 | 80.16852 | 52 ft | 10 kts | 69° |
| 2026-05-04 19:03 | 12.98829 | 80.16930 | 53 ft | 14 kts | 69° |
| 2026-05-04 19:04 | 12.98871 | 80.17040 | 54 ft | 19 kts | 69° |
| 2026-05-04 19:04 | 12.98921 | 80.17172 | 50 ft | 20 kts | 68° |
| 2026-05-04 19:04 | 12.98980 | 80.17296 | 48 ft | 19 kts | 65° |
| 2026-05-04 19:04 | 12.99028 | 80.17421 | 50 ft | 19 kts | 69° |
| 2026-05-04 19:05 | 12.99074 | 80.17542 | 52 ft | 18 kts | 69° |
| 2026-05-04 19:05 | 12.99115 | 80.17651 | 52 ft | 13 kts | 68° |
| 2026-05-04 19:05 | 12.99181 | 80.17701 | 55 ft | 12 kts | 25° |
| 2026-05-04 19:05 | 12.99226 | 80.17773 | 50 ft | 13 kts | 68° |
| 2026-05-04 19:06 | 12.99261 | 80.17865 | 54 ft | 15 kts | 69° |
| 2026-05-04 19:06 | 12.99303 | 80.17974 | 54 ft | 17 kts | 69° |
| 2026-05-04 19:06 | 12.99337 | 80.18064 | 53 ft | 11 kts | 68° |
| 2026-05-04 19:06 | 12.99386 | 80.18118 | 55 ft | 11 kts | 2° |
| 2026-05-04 19:07 | 12.99436 | 80.18065 | 52 ft | 11 kts | 289° |
| 2026-05-04 19:07 | 12.99429 | 80.17994 | 52 ft | 10 kts | 245° |
| 2026-05-04 19:07 | 12.99396 | 80.17928 | 55 ft | 10 kts | 249° |
| 2026-05-04 19:07 | 12.99363 | 80.17833 | 55 ft | 29 kts | 250° |
| 2026-05-04 19:08 | 12.99193 | 80.17371 | 53 ft | 108 kts | 249° |
| 2026-05-04 19:08 | 12.98826 | 80.16439 | 144 ft | 164 kts | 245° |
| 2026-05-04 19:08 | 12.98397 | 80.15337 | 995 ft | 166 kts | 245° |
| 2026-05-04 19:08 | 12.97983 | 80.14194 | 1876 ft | 174 kts | 243° |
| 2026-05-04 19:09 | 12.97518 | 80.12944 | 2350 ft | 208 kts | 243° |
| 2026-05-04 19:09 | 12.96968 | 80.11472 | 2594 ft | 235 kts | 245° |
| 2026-05-04 19:09 | 12.96375 | 80.09878 | 3116 ft | 242 kts | 245° |
| 2026-05-04 19:09 | 12.95752 | 80.08209 | 3453 ft | 261 kts | 246° |
| 2026-05-04 19:10 | 12.95083 | 80.06422 | 3985 ft | 273 kts | 246° |
| 2026-05-04 19:10 | 12.94404 | 80.04614 | 4818 ft | 273 kts | 247° |
| 2026-05-04 19:10 | 12.93714 | 80.02785 | 5442 ft | 281 kts | 248° |
| 2026-05-04 19:10 | 12.93000 | 80.00896 | 6145 ft | 286 kts | 248° |
| 2026-05-04 19:11 | 12.92266 | 79.98954 | 6844 ft | 289 kts | 249° |
| 2026-05-04 19:11 | 12.91543 | 79.97047 | 7557 ft | 293 kts | 249° |
| 2026-05-04 19:11 | 12.90789 | 79.95062 | 8243 ft | 297 kts | 249° |
| 2026-05-04 19:11 | 12.90041 | 79.93103 | 8939 ft | 301 kts | 248° |
| 2026-05-04 19:12 | 12.89128 | 79.91154 | 9662 ft | 304 kts | 243° |
| 2026-05-04 19:12 | 12.86990 | 79.87234 | 10407 ft | 335 kts | 242° |
| 2026-05-04 19:12 | 12.85819 | 79.85099 | 10590 ft | 354 kts | 242° |
| 2026-05-04 19:13 | 12.84588 | 79.82831 | 10747 ft | 373 kts | 242° |
| 2026-05-04 19:13 | 12.83308 | 79.80452 | 10903 ft | 389 kts | 242° |
| 2026-05-04 19:13 | 12.81987 | 79.77986 | 11243 ft | 398 kts | 242° |
| 2026-05-04 19:13 | 12.80649 | 79.75483 | 11672 ft | 403 kts | 242° |
| 2026-05-04 19:14 | 12.79249 | 79.73025 | 12219 ft | 405 kts | 234° |
| 2026-05-04 19:14 | 12.77212 | 79.71019 | 12757 ft | 409 kts | 215° |
| 2026-05-04 19:14 | 12.74652 | 79.69738 | 13270 ft | 412 kts | 202° |
| 2026-05-04 19:14 | 12.71949 | 79.68693 | 13663 ft | 417 kts | 201° |
| 2026-05-04 19:15 | 12.69225 | 79.67667 | 14139 ft | 418 kts | 201° |
| 2026-05-04 19:15 | 12.66497 | 79.66642 | 14621 ft | 418 kts | 201° |
| 2026-05-04 19:15 | 12.63760 | 79.65604 | 15091 ft | 419 kts | 201° |
| 2026-05-04 19:15 | 12.61018 | 79.64554 | 15546 ft | 420 kts | 201° |
| 2026-05-04 19:16 | 12.58276 | 79.63496 | 15998 ft | 421 kts | 201° |
| 2026-05-04 19:16 | 12.55532 | 79.62431 | 16439 ft | 422 kts | 201° |
| 2026-05-04 19:16 | 12.52811 | 79.61373 | 16870 ft | 423 kts | 201° |
| 2026-05-04 19:16 | 12.50057 | 79.60300 | 17272 ft | 424 kts | 201° |
| 2026-05-04 19:17 | 12.47296 | 79.59225 | 17677 ft | 426 kts | 201° |
| 2026-05-04 19:17 | 12.44517 | 79.58143 | 18045 ft | 428 kts | 201° |
| 2026-05-04 19:17 | 12.41730 | 79.57058 | 18359 ft | 430 kts | 201° |
| 2026-05-04 19:17 | 12.38932 | 79.55970 | 18666 ft | 431 kts | 201° |
| 2026-05-04 19:18 | 12.36123 | 79.54877 | 18938 ft | 434 kts | 201° |
| 2026-05-04 19:18 | 12.33296 | 79.53778 | 19210 ft | 436 kts | 201° |
| 2026-05-04 19:18 | 12.30463 | 79.52677 | 19515 ft | 437 kts | 201° |
| 2026-05-04 19:18 | 12.27594 | 79.51562 | 19783 ft | 439 kts | 201° |
| 2026-05-04 19:19 | 12.24734 | 79.50451 | 20062 ft | 441 kts | 200° |
| 2026-05-04 19:19 | 12.21863 | 79.49336 | 20319 ft | 443 kts | 200° |
| 2026-05-04 19:19 | 12.18986 | 79.48218 | 20575 ft | 445 kts | 200° |
| 2026-05-04 19:19 | 12.16077 | 79.47089 | 20839 ft | 446 kts | 200° |
| 2026-05-04 19:20 | 12.13164 | 79.45958 | 21095 ft | 448 kts | 200° |
| 2026-05-04 19:20 | 12.10247 | 79.44826 | 21335 ft | 450 kts | 200° |
| 2026-05-04 19:20 | 12.07317 | 79.43689 | 21582 ft | 451 kts | 200° |
| 2026-05-04 19:20 | 12.04379 | 79.42550 | 21825 ft | 452 kts | 200° |
| 2026-05-04 19:21 | 12.01435 | 79.41408 | 22040 ft | 454 kts | 200° |
| 2026-05-04 19:21 | 11.98508 | 79.40273 | 22243 ft | 456 kts | 200° |
| 2026-05-04 19:21 | 11.95536 | 79.39121 | 22475 ft | 457 kts | 200° |
| 2026-05-04 19:21 | 11.92545 | 79.37962 | 22699 ft | 459 kts | 200° |
| 2026-05-04 19:22 | 11.89559 | 79.36805 | 22889 ft | 460 kts | 200° |
| 2026-05-04 19:22 | 11.86569 | 79.35647 | 23067 ft | 462 kts | 200° |
| 2026-05-04 19:22 | 11.83553 | 79.34479 | 23267 ft | 463 kts | 200° |
| 2026-05-04 19:22 | 11.80535 | 79.33310 | 23455 ft | 465 kts | 200° |
| 2026-05-04 19:23 | 11.77491 | 79.32132 | 23599 ft | 466 kts | 200° |
| 2026-05-04 19:23 | 11.74452 | 79.30955 | 23753 ft | 468 kts | 200° |
| 2026-05-04 19:23 | 11.71395 | 79.29772 | 23904 ft | 469 kts | 200° |
| 2026-05-04 19:23 | 11.68344 | 79.28591 | 24047 ft | 470 kts | 200° |
| 2026-05-04 19:24 | 11.66318 | 79.27808 | 24146 ft | 471 kts | 200° |
| 2026-05-04 19:24 | 11.62229 | 79.26292 | 24314 ft | 472 kts | 194° |
| 2026-05-04 19:24 | 11.58972 | 79.25929 | 24426 ft | 473 kts | 177° |
| 2026-05-04 19:24 | 11.56757 | 79.26187 | 24527 ft | 474 kts | 168° |
| 2026-05-04 19:25 | 11.53654 | 79.27280 | 24670 ft | 475 kts | 154° |
| 2026-05-04 19:25 | 11.50718 | 79.28845 | 24822 ft | 475 kts | 152° |
| 2026-05-04 19:25 | 11.47802 | 79.30457 | 24930 ft | 477 kts | 152° |
| 2026-05-04 19:25 | 11.44876 | 79.32068 | 25040 ft | 478 kts | 152° |
| 2026-05-04 19:26 | 11.41932 | 79.33662 | 25173 ft | 479 kts | 152° |
| 2026-05-04 19:26 | 11.38979 | 79.35236 | 25311 ft | 480 kts | 153° |
| 2026-05-04 19:26 | 11.36010 | 79.36805 | 25442 ft | 480 kts | 153° |
| 2026-05-04 19:26 | 11.33040 | 79.38371 | 25572 ft | 481 kts | 153° |
| 2026-05-04 19:27 | 11.30064 | 79.39942 | 25691 ft | 482 kts | 153° |
| 2026-05-04 19:27 | 11.27078 | 79.41516 | 25818 ft | 483 kts | 153° |
| 2026-05-04 19:27 | 11.24130 | 79.43066 | 25942 ft | 483 kts | 153° |
| 2026-05-04 19:27 | 11.21146 | 79.44633 | 26059 ft | 484 kts | 153° |
| 2026-05-04 19:28 | 11.18152 | 79.46205 | 26171 ft | 484 kts | 153° |
| 2026-05-04 19:28 | 11.15156 | 79.47779 | 26290 ft | 485 kts | 153° |
| 2026-05-04 19:28 | 11.12155 | 79.49356 | 26430 ft | 485 kts | 153° |
| 2026-05-04 19:28 | 11.09157 | 79.50931 | 26615 ft | 484 kts | 153° |
| 2026-05-04 19:29 | 11.06175 | 79.52497 | 26806 ft | 483 kts | 153° |
| 2026-05-04 19:29 | 11.03191 | 79.54064 | 26962 ft | 483 kts | 153° |
| 2026-05-04 19:29 | 11.00208 | 79.55631 | 27109 ft | 483 kts | 153° |
| 2026-05-04 19:29 | 10.97218 | 79.57200 | 27292 ft | 482 kts | 153° |
| 2026-05-04 19:30 | 10.94251 | 79.58757 | 27496 ft | 481 kts | 153° |
| 2026-05-04 19:30 | 10.91267 | 79.60323 | 27684 ft | 480 kts | 153° |
| 2026-05-04 19:30 | 10.88295 | 79.61882 | 27861 ft | 480 kts | 153° |
| 2026-05-04 19:30 | 10.85332 | 79.63436 | 28051 ft | 480 kts | 153° |
| 2026-05-04 19:31 | 10.82358 | 79.64996 | 28259 ft | 479 kts | 153° |
| 2026-05-04 19:31 | 10.79402 | 79.66546 | 28470 ft | 478 kts | 153° |
| 2026-05-04 19:31 | 10.76438 | 79.68099 | 28671 ft | 478 kts | 153° |
| 2026-05-04 19:31 | 10.73483 | 79.69648 | 28854 ft | 477 kts | 153° |
| 2026-05-04 19:32 | 10.70526 | 79.71198 | 29070 ft | 477 kts | 153° |
| 2026-05-04 19:32 | 10.67623 | 79.72722 | 29293 ft | 476 kts | 153° |
| 2026-05-04 19:32 | 10.64676 | 79.74270 | 29518 ft | 475 kts | 153° |
| 2026-05-04 19:32 | 10.61747 | 79.75809 | 29741 ft | 474 kts | 153° |
| 2026-05-04 19:33 | 10.58812 | 79.77350 | 29966 ft | 473 kts | 153° |
| 2026-05-04 19:33 | 10.55886 | 79.78887 | 30158 ft | 473 kts | 153° |
| 2026-05-04 19:33 | 10.52972 | 79.80416 | 30347 ft | 472 kts | 153° |
| 2026-05-04 19:33 | 10.50056 | 79.81947 | 30541 ft | 471 kts | 153° |
| 2026-05-04 19:34 | 10.47145 | 79.83474 | 30747 ft | 470 kts | 153° |
| 2026-05-04 19:34 | 10.44244 | 79.84996 | 30958 ft | 469 kts | 153° |
| 2026-05-04 19:34 | 10.41343 | 79.86517 | 31169 ft | 468 kts | 153° |
| 2026-05-04 19:34 | 10.38447 | 79.88035 | 31374 ft | 468 kts | 153° |
| 2026-05-04 19:35 | 10.35555 | 79.89551 | 31592 ft | 466 kts | 153° |
| 2026-05-04 19:35 | 10.32680 | 79.91057 | 31819 ft | 465 kts | 153° |
| 2026-05-04 19:35 | 10.29803 | 79.92565 | 32035 ft | 464 kts | 153° |
| 2026-05-04 19:35 | 10.26928 | 79.94071 | 32228 ft | 464 kts | 153° |
| 2026-05-04 19:36 | 10.24053 | 79.95577 | 32403 ft | 464 kts | 153° |
| 2026-05-04 19:36 | 10.21181 | 79.97081 | 32588 ft | 464 kts | 153° |
| 2026-05-04 19:36 | 10.18314 | 79.98582 | 32787 ft | 464 kts | 153° |
| 2026-05-04 19:36 | 10.15440 | 80.00087 | 32974 ft | 464 kts | 154° |
| 2026-05-04 19:37 | 10.12582 | 80.01583 | 33169 ft | 464 kts | 154° |
| 2026-05-04 19:37 | 10.09709 | 80.03086 | 33343 ft | 464 kts | 154° |
| 2026-05-04 19:37 | 10.06829 | 80.04594 | 33537 ft | 464 kts | 154° |
| 2026-05-04 19:37 | 10.03955 | 80.06097 | 33743 ft | 464 kts | 154° |
| 2026-05-04 19:38 | 10.01051 | 80.07512 | 33903 ft | 463 kts | 161° |
| 2026-05-04 19:38 | 9.95941 | 80.08260 | 34128 ft | 461 kts | 181° |
| 2026-05-04 19:38 | 9.92734 | 80.08192 | 34314 ft | 460 kts | 182° |
| 2026-05-04 19:39 | 9.89532 | 80.08081 | 34494 ft | 460 kts | 182° |
| 2026-05-04 19:39 | 9.86328 | 80.07968 | 34669 ft | 460 kts | 182° |
| 2026-05-04 19:39 | 9.83136 | 80.07869 | 34855 ft | 459 kts | 182° |
| 2026-05-04 19:39 | 9.79941 | 80.07786 | 35036 ft | 459 kts | 181° |
| 2026-05-04 19:40 | 9.76756 | 80.07716 | 35233 ft | 458 kts | 181° |
| 2026-05-04 19:40 | 9.73574 | 80.07653 | 35429 ft | 457 kts | 181° |
| 2026-05-04 19:40 | 9.70394 | 80.07593 | 35628 ft | 457 kts | 181° |
| 2026-05-04 19:40 | 9.67215 | 80.07534 | 35769 ft | 455 kts | 181° |
| 2026-05-04 19:41 | 9.64045 | 80.07474 | 35827 ft | 454 kts | 181° |
| 2026-05-04 19:41 | 9.57738 | 80.07354 | 35852 ft | 457 kts | 181° |
| 2026-05-04 19:42 | 9.51345 | 80.07232 | 35862 ft | 460 kts | 181° |
| 2026-05-04 19:42 | 9.44934 | 80.07109 | 35855 ft | 461 kts | 181° |
| 2026-05-04 19:43 | 9.38547 | 80.06986 | 35852 ft | 461 kts | 181° |
| 2026-05-04 19:43 | 9.32124 | 80.06863 | 35858 ft | 461 kts | 181° |
| 2026-05-04 19:44 | 9.25700 | 80.06739 | 35848 ft | 461 kts | 181° |
| 2026-05-04 19:44 | 9.19274 | 80.06614 | 35854 ft | 460 kts | 181° |
| 2026-05-04 19:44 | 9.16077 | 80.06551 | 35608 ft | 463 kts | 181° |
| 2026-05-04 19:45 | 9.12788 | 80.06487 | 34621 ft | 475 kts | 181° |
| 2026-05-04 19:45 | 9.09492 | 80.06423 | 33915 ft | 473 kts | 181° |
| 2026-05-04 19:45 | 9.06202 | 80.06359 | 33217 ft | 471 kts | 181° |
| 2026-05-04 19:45 | 9.02920 | 80.06295 | 32500 ft | 470 kts | 181° |
| 2026-05-04 19:46 | 9.00746 | 80.06253 | 32035 ft | 470 kts | 181° |
| 2026-05-04 19:46 | 8.97648 | 80.06193 | 31356 ft | 470 kts | 181° |
| 2026-05-04 19:46 | 8.94376 | 80.06129 | 30582 ft | 472 kts | 181° |
| 2026-05-04 19:46 | 8.91074 | 80.06065 | 29768 ft | 475 kts | 181° |
| 2026-05-04 19:47 | 8.87765 | 80.06001 | 28829 ft | 477 kts | 181° |
| 2026-05-04 19:47 | 8.84446 | 80.05937 | 27944 ft | 477 kts | 180° |
| 2026-05-04 19:47 | 8.81122 | 80.05872 | 27041 ft | 478 kts | 180° |
| 2026-05-04 19:47 | 8.77828 | 80.05808 | 26111 ft | 480 kts | 180° |
| 2026-05-04 19:48 | 8.74483 | 80.05743 | 25194 ft | 482 kts | 180° |
| 2026-05-04 19:48 | 8.71144 | 80.05678 | 24497 ft | 478 kts | 180° |
| 2026-05-04 19:48 | 8.67820 | 80.05614 | 23805 ft | 475 kts | 180° |
| 2026-05-04 19:48 | 8.64521 | 80.05549 | 23040 ft | 472 kts | 180° |
| 2026-05-04 19:49 | 8.61242 | 80.05486 | 22297 ft | 467 kts | 180° |
| 2026-05-04 19:49 | 8.58012 | 80.05423 | 21604 ft | 462 kts | 180° |
| 2026-05-04 19:49 | 8.54813 | 80.05362 | 20929 ft | 457 kts | 180° |
| 2026-05-04 19:49 | 8.51659 | 80.05301 | 20266 ft | 452 kts | 180° |
| 2026-05-04 19:50 | 8.48519 | 80.05240 | 19584 ft | 448 kts | 181° |
| 2026-05-04 19:50 | 8.45420 | 80.05180 | 18915 ft | 445 kts | 181° |
| 2026-05-04 19:50 | 8.42342 | 80.05120 | 18265 ft | 441 kts | 181° |
| 2026-05-04 19:50 | 8.39272 | 80.05061 | 17526 ft | 438 kts | 181° |
| 2026-05-04 19:51 | 8.36240 | 80.05002 | 16845 ft | 433 kts | 181° |
| 2026-05-04 19:51 | 8.33248 | 80.04944 | 16195 ft | 429 kts | 181° |
| 2026-05-04 19:51 | 8.30311 | 80.04887 | 15551 ft | 425 kts | 181° |
| 2026-05-04 19:51 | 8.27358 | 80.04830 | 14892 ft | 422 kts | 181° |
| 2026-05-04 19:52 | 8.24437 | 80.04773 | 14330 ft | 418 kts | 181° |
| 2026-05-04 19:52 | 8.21570 | 80.04718 | 14133 ft | 404 kts | 181° |
| 2026-05-04 19:52 | 8.18795 | 80.04664 | 14009 ft | 392 kts | 181° |
| 2026-05-04 19:52 | 8.16123 | 80.04612 | 13898 ft | 378 kts | 181° |
| 2026-05-04 19:53 | 8.13541 | 80.04563 | 13861 ft | 363 kts | 181° |
| 2026-05-04 19:53 | 8.11072 | 80.04515 | 13849 ft | 347 kts | 181° |
| 2026-05-04 19:53 | 8.08703 | 80.04470 | 13838 ft | 333 kts | 181° |
| 2026-05-04 19:53 | 8.06454 | 80.04427 | 13752 ft | 323 kts | 181° |
| 2026-05-04 19:54 | 8.04214 | 80.04384 | 13413 ft | 321 kts | 181° |
| 2026-05-04 19:54 | 8.01988 | 80.04341 | 13094 ft | 319 kts | 181° |
| 2026-05-04 19:54 | 7.99774 | 80.04299 | 12765 ft | 317 kts | 181° |
| 2026-05-04 19:54 | 7.97573 | 80.04256 | 12444 ft | 315 kts | 181° |
| 2026-05-04 19:55 | 7.95390 | 80.04215 | 12126 ft | 313 kts | 181° |
| 2026-05-04 19:55 | 7.93217 | 80.04173 | 11813 ft | 311 kts | 180° |
| 2026-05-04 19:55 | 7.91068 | 80.04132 | 11495 ft | 309 kts | 180° |
| 2026-05-04 19:55 | 7.88919 | 80.04091 | 11193 ft | 308 kts | 180° |
| 2026-05-04 19:56 | 7.86788 | 80.04050 | 10884 ft | 306 kts | 180° |
| 2026-05-04 19:56 | 7.84659 | 80.04009 | 10582 ft | 304 kts | 180° |
| 2026-05-04 19:56 | 7.82544 | 80.03968 | 10285 ft | 303 kts | 180° |
| 2026-05-04 19:56 | 7.80436 | 80.03928 | 9985 ft | 302 kts | 180° |
| 2026-05-04 19:57 | 7.78338 | 80.03888 | 9684 ft | 300 kts | 180° |
| 2026-05-04 19:57 | 7.76277 | 80.03849 | 9358 ft | 299 kts | 181° |
| 2026-05-04 19:57 | 7.74201 | 80.03809 | 9036 ft | 298 kts | 181° |
| 2026-05-04 19:57 | 7.72136 | 80.03769 | 8714 ft | 296 kts | 181° |
| 2026-05-04 19:58 | 7.70074 | 80.03730 | 8402 ft | 295 kts | 181° |
| 2026-05-04 19:58 | 7.68028 | 80.03691 | 8088 ft | 293 kts | 181° |
| 2026-05-04 19:58 | 7.65991 | 80.03652 | 7774 ft | 292 kts | 182° |
| 2026-05-04 19:58 | 7.63958 | 80.03613 | 7465 ft | 291 kts | 182° |
| 2026-05-04 19:59 | 7.61941 | 80.03574 | 7164 ft | 290 kts | 182° |
| 2026-05-04 19:59 | 7.59936 | 80.03536 | 6860 ft | 288 kts | 182° |
| 2026-05-04 19:59 | 7.57933 | 80.03497 | 6544 ft | 285 kts | 182° |
| 2026-05-04 19:59 | 7.55979 | 80.03460 | 6247 ft | 277 kts | 182° |
| 2026-05-04 20:00 | 7.54077 | 80.03424 | 5919 ft | 270 kts | 182° |
| 2026-05-04 20:00 | 7.52222 | 80.03389 | 5597 ft | 263 kts | 183° |
| 2026-05-04 20:00 | 7.50411 | 80.03355 | 5315 ft | 256 kts | 183° |
| 2026-05-04 20:00 | 7.48697 | 80.03322 | 5111 ft | 243 kts | 184° |
| 2026-05-04 20:01 | 7.47056 | 80.03291 | 4873 ft | 231 kts | 184° |
| 2026-05-04 20:01 | 7.45472 | 80.03261 | 4656 ft | 224 kts | 184° |
| 2026-05-04 20:01 | 7.43935 | 80.03231 | 4389 ft | 219 kts | 184° |
| 2026-05-04 20:01 | 7.42433 | 80.03201 | 4131 ft | 213 kts | 184° |
| 2026-05-04 20:02 | 7.40972 | 80.03173 | 3888 ft | 207 kts | 184° |
| 2026-05-04 20:02 | 7.39548 | 80.03147 | 3632 ft | 202 kts | 185° |
| 2026-05-04 20:02 | 7.38153 | 80.03120 | 3405 ft | 200 kts | 185° |
| 2026-05-04 20:02 | 7.36847 | 80.02753 | 3152 ft | 194 kts | 213° |
| 2026-05-04 20:03 | 7.35751 | 80.01972 | 2921 ft | 194 kts | 219° |
| 2026-05-04 20:03 | 7.34686 | 80.01149 | 2678 ft | 191 kts | 219° |
| 2026-05-04 20:03 | 7.33646 | 80.00343 | 2460 ft | 185 kts | 218° |
| 2026-05-04 20:03 | 7.32630 | 79.99562 | 2410 ft | 179 kts | 218° |
| 2026-05-04 20:04 | 7.31689 | 79.98839 | 2382 ft | 166 kts | 218° |
| 2026-05-04 20:04 | 7.30801 | 79.98155 | 2393 ft | 156 kts | 218° |
| 2026-05-04 20:04 | 7.29965 | 79.97511 | 2411 ft | 145 kts | 218° |
| 2026-05-04 20:04 | 7.29181 | 79.96905 | 2356 ft | 140 kts | 218° |
| 2026-05-04 20:05 | 7.28404 | 79.96305 | 2210 ft | 142 kts | 218° |
| 2026-05-04 20:05 | 7.27641 | 79.95716 | 2048 ft | 137 kts | 218° |
| 2026-05-04 20:05 | 7.26896 | 79.95142 | 1852 ft | 134 kts | 217° |
| 2026-05-04 20:05 | 7.26156 | 79.94572 | 1695 ft | 133 kts | 218° |
| 2026-05-04 20:06 | 7.25415 | 79.94000 | 1514 ft | 135 kts | 217° |
| 2026-05-04 20:06 | 7.24678 | 79.93433 | 1336 ft | 133 kts | 218° |
| 2026-05-04 20:06 | 7.23931 | 79.92856 | 1170 ft | 136 kts | 217° |
| 2026-05-04 20:06 | 7.23434 | 79.92472 | 1048 ft | 135 kts | 218° |
| 2026-05-04 20:07 | 7.22691 | 79.91898 | 883 ft | 138 kts | 217° |
| 2026-05-04 20:07 | 7.21912 | 79.91297 | 730 ft | 142 kts | 217° |
| 2026-05-04 20:07 | 7.20855 | 79.90483 | 420 ft | 145 kts | 216° |
| 2026-05-04 20:07 | 7.20073 | 79.89864 | 286 ft | 144 kts | 215° |
| 2026-05-04 20:08 | 7.19271 | 79.89259 | 57 ft | 143 kts | 215° |
| 2026-05-04 20:08 | 7.18764 | 79.88876 | 28 ft | 126 kts | 217° |
| 2026-05-04 20:08 | 7.18183 | 79.88422 | 26 ft | 83 kts | 215° |
| 2026-05-04 20:08 | 7.17914 | 79.88226 | 28 ft | 11 kts | 197° |
| 2026-05-04 20:09 | 7.17845 | 79.88249 | 29 ft | 11 kts | 135° |
| 2026-05-04 20:09 | 7.17802 | 79.88310 | 27 ft | 11 kts | 120° |
| 2026-05-04 20:09 | 7.17820 | 79.88373 | 27 ft | 9 kts | 44° |
| 2026-05-04 20:09 | 7.17853 | 79.88423 | 26 ft | 9 kts | 87° |
| 2026-05-04 20:10 | 7.17829 | 79.88477 | 26 ft | 9 kts | 127° |
| 2026-05-04 20:10 | 7.17793 | 79.88524 | 26 ft | 8 kts | 127° |
| 2026-05-04 20:10 | 7.17761 | 79.88567 | 28 ft | 7 kts | 127° |
| 2026-05-04 20:10 | 7.17729 | 79.88584 | 29 ft | 6 kts | 192° |
| 2026-05-04 20:11 | 7.17698 | 79.88560 | 29 ft | 6 kts | 220° |
| 2026-05-04 20:11 | 7.17669 | 79.88538 | 28 ft | 4 kts | 217° |
| 2026-05-04 20:11 | 7.17659 | 79.88530 | 28 ft | 0 kts | 216° |